Time;durP1;ratioP1;P1;durP2;ratioP2;P2;SDS_P1;SDS_P2;PMS_P1;PMS_P2;Temp;Humidity;BMP_temperature;BMP_pressure;BME280_temperature;BME280_humidity;BME280_pressure;Samples;Min_cycle;Max_cycle;Signal;HPM_P1;HPM_P2
2023/09/18 00:01:09;;;;;;;3.30;1.90;;;;;;;;;;5053076;28;20465;-66
2023/09/18 00:03:39;;;;;;;3.03;1.50;;;;;;;;;;5065800;28;20537;-66
2023/09/18 00:06:06;;;;;;;1.80;1.00;;;;;;;;;;5059623;28;20458;-67
2023/09/18 00:08:34;;;;;;;2.40;1.30;;;;;;;;;;5055504;28;20450;-67
2023/09/18 00:11:01;;;;;;;4.23;1.50;;;;;;;;;;5060310;28;20887;-68
2023/09/18 00:13:29;;;;;;;2.53;1.67;;;;;;;;;;5065139;28;20947;-66
2023/09/18 00:15:59;;;;;;;4.37;1.80;;;;;;;;;;5045016;28;20454;-65
2023/09/18 00:18:29;;;;;;;2.70;1.57;;;;;;;;;;5065041;28;20900;-67
2023/09/18 00:20:56;;;;;;;3.20;1.97;;;;;;;;;;5055404;28;20449;-66
2023/09/18 00:23:23;;;;;;;2.70;1.50;;;;;;;;;;5055267;28;20465;-65
2023/09/18 00:25:50;;;;;;;3.23;1.50;;;;;;;;;;5058463;28;20458;-66
2023/09/18 00:28:17;;;;;;;2.40;1.43;;;;;;;;;;5051766;28;20560;-66
2023/09/18 00:30:49;;;;;;;4.23;1.90;;;;;;;;;;5064016;28;20491;-66
2023/09/18 00:33:16;;;;;;;4.57;1.43;;;;;;;;;;5037892;28;20473;-66
2023/09/18 00:35:46;;;;;;;5.47;1.87;;;;;;;;;;5057570;28;20531;-66
2023/09/18 00:38:13;;;;;;;2.67;1.80;;;;;;;;;;5054303;28;20438;-66
2023/09/18 00:40:40;;;;;;;3.27;1.73;;;;;;;;;;5064198;28;20829;-67
2023/09/18 00:43:07;;;;;;;2.40;1.63;;;;;;;;;;5058471;28;20453;-66
2023/09/18 00:45:35;;;;;;;2.83;1.57;;;;;;;;;;5056413;28;20462;-66
2023/09/18 00:48:03;;;;;;;2.60;1.50;;;;;;;;;;5047970;28;20458;-66
2023/09/18 00:50:30;;;;;;;2.67;1.30;;;;;;;;;;5051099;28;20461;-66
2023/09/18 00:52:57;;;;;;;3.40;1.43;;;;;;;;;;5061202;28;20441;-65
2023/09/18 00:55:25;;;;;;;2.70;1.90;;;;;;;;;;5054644;28;20482;-67
2023/09/18 00:57:52;;;;;;;2.70;1.77;;;;;;;;;;5059393;28;20464;-66
2023/09/18 01:00:19;;;;;;;3.10;1.43;;;;;;;;;;5057246;28;20441;-66
2023/09/18 01:02:47;;;;;;;3.33;1.43;;;;;;;;;;5067882;28;20461;-66
2023/09/18 01:05:19;;;;;;;3.60;1.70;;;;;;;;;;5067622;28;20457;-66
2023/09/18 01:07:46;;;;;;;3.53;1.57;;;;;;;;;;5066074;28;20983;-67
2023/09/18 01:10:15;;;;;;;2.20;1.30;;;;;;;;;;5056538;28;20503;-67
2023/09/18 01:12:46;;;;;;;2.90;1.80;;;;;;;;;;5067243;28;20536;-66
2023/09/18 01:15:16;;;;;;;3.70;2.10;;;;;;;;;;5058851;28;20486;-67
2023/09/18 01:17:43;;;;;;;3.90;2.10;;;;;;;;;;5052057;28;20450;-67
2023/09/18 01:20:11;;;;;;;2.90;1.53;;;;;;;;;;5071785;28;20449;-66
2023/09/18 01:22:39;;;;;;;2.97;1.70;;;;;;;;;;5060551;28;20454;-66
2023/09/18 01:25:07;;;;;;;2.50;1.40;;;;;;;;;;5067143;28;20501;-66
2023/09/18 01:27:37;;;;;;;4.40;1.70;;;;;;;;;;5047667;28;20465;-66
2023/09/18 01:30:04;;;;;;;2.60;1.87;;;;;;;;;;5047153;28;20457;-67
2023/09/18 01:32:33;;;;;;;3.67;1.70;;;;;;;;;;5054718;28;20450;-66
2023/09/18 01:35:01;;;;;;;3.60;1.70;;;;;;;;;;5047049;28;20504;-67
2023/09/18 01:37:29;;;;;;;2.77;2.07;;;;;;;;;;5057137;28;20469;-67
2023/09/18 01:39:59;;;;;;;2.47;1.50;;;;;;;;;;5053866;28;20446;-67
2023/09/18 01:42:26;;;;;;;2.63;1.67;;;;;;;;;;5058081;28;20503;-66
2023/09/18 01:44:54;;;;;;;1.90;1.20;;;;;;;;;;5073681;28;20963;-66
2023/09/18 01:47:23;;;;;;;2.80;1.40;;;;;;;;;;5056632;28;20518;-67
2023/09/18 01:49:50;;;;;;;2.67;1.60;;;;;;;;;;5062226;28;20882;-66
2023/09/18 01:52:17;;;;;;;2.47;1.73;;;;;;;;;;5057344;28;20437;-67
2023/09/18 01:54:44;;;;;;;3.87;1.73;;;;;;;;;;5063740;28;20513;-66
2023/09/18 01:57:13;;;;;;;5.33;1.30;;;;;;;;;;5066327;28;20461;-67
2023/09/18 01:59:41;;;;;;;3.37;1.60;;;;;;;;;;5068521;28;20438;-67
2023/09/18 02:02:09;;;;;;;2.63;1.77;;;;;;;;;;5060853;28;20542;-67
2023/09/18 02:04:36;;;;;;;2.73;1.60;;;;;;;;;;5073014;28;20553;-68
2023/09/18 02:07:03;;;;;;;3.27;1.40;;;;;;;;;;5057258;28;20462;-67
2023/09/18 02:09:31;;;;;;;2.63;1.70;;;;;;;;;;5053849;28;20442;-66
2023/09/18 02:11:58;;;;;;;4.50;1.93;;;;;;;;;;5056320;28;20959;-67
2023/09/18 02:14:26;;;;;;;2.23;1.47;;;;;;;;;;5059911;28;20998;-67
2023/09/18 02:16:54;;;;;;;2.40;1.40;;;;;;;;;;5046793;28;20454;-67
2023/09/18 02:19:21;;;;;;;2.37;1.03;;;;;;;;;;5065841;28;20623;-67
2023/09/18 02:21:48;;;;;;;2.50;1.13;;;;;;;;;;5060404;28;20873;-67
2023/09/18 02:24:15;;;;;;;2.53;1.20;;;;;;;;;;5058064;28;20855;-66
2023/09/18 02:26:45;;;;;;;3.00;1.63;;;;;;;;;;5050906;28;20462;-66
2023/09/18 02:29:13;;;;;;;4.57;2.20;;;;;;;;;;5066187;28;20449;-66
2023/09/18 02:31:42;;;;;;;2.60;1.20;;;;;;;;;;5052900;28;20520;-67
2023/09/18 02:34:09;;;;;;;3.03;1.47;;;;;;;;;;5055220;28;20438;-67
2023/09/18 02:36:36;;;;;;;2.97;1.53;;;;;;;;;;5066673;28;20551;-67
2023/09/18 02:39:04;;;;;;;2.80;1.33;;;;;;;;;;5066481;28;20441;-67
2023/09/18 02:41:34;;;;;;;2.30;1.20;;;;;;;;;;5061504;28;20511;-67
2023/09/18 02:44:01;;;;;;;3.77;1.30;;;;;;;;;;5055715;28;20442;-66
2023/09/18 02:46:29;;;;;;;5.03;1.30;;;;;;;;;;5051388;28;20453;-66
2023/09/18 02:48:57;;;;;;;3.47;1.63;;;;;;;;;;5056297;28;20445;-66
2023/09/18 02:51:24;;;;;;;7.10;1.67;;;;;;;;;;5062928;28;20430;-66
2023/09/18 02:53:53;;;;;;;3.47;1.47;;;;;;;;;;5052236;28;20453;-67
2023/09/18 02:56:20;;;;;;;2.67;1.17;;;;;;;;;;5053364;28;20478;-67
2023/09/18 02:58:47;;;;;;;4.13;1.77;;;;;;;;;;5063391;28;20507;-66
2023/09/18 03:01:14;;;;;;;3.40;1.40;;;;;;;;;;5061258;28;20468;-67
2023/09/18 03:03:42;;;;;;;2.97;1.20;;;;;;;;;;5058794;28;20436;-68
2023/09/18 03:06:10;;;;;;;5.13;1.40;;;;;;;;;;5053581;28;20476;-67
2023/09/18 03:08:38;;;;;;;2.20;1.10;;;;;;;;;;5056831;28;20846;-67
2023/09/18 03:11:12;;;;;;;3.63;1.47;;;;;;;;;;5053165;28;20458;-67
2023/09/18 03:13:44;;;;;;;3.90;1.50;;;;;;;;;;5046567;28;20457;-66
2023/09/18 03:16:11;;;;;;;2.53;1.00;;;;;;;;;;5047119;28;20502;-67
2023/09/18 03:18:39;;;;;;;3.00;1.37;;;;;;;;;;5051299;28;20883;-67
2023/09/18 03:21:06;;;;;;;3.33;1.10;;;;;;;;;;5064870;28;20837;-67
2023/09/18 03:23:34;;;;;;;7.50;1.83;;;;;;;;;;5050199;28;20473;-67
2023/09/18 03:26:02;;;;;;;2.30;1.00;;;;;;;;;;5060875;28;20545;-67
2023/09/18 03:28:29;;;;;;;4.70;1.83;;;;;;;;;;5047688;28;20461;-67
2023/09/18 03:30:57;;;;;;;2.70;1.40;;;;;;;;;;5065621;28;20452;-67
2023/09/18 03:33:24;;;;;;;2.80;1.10;;;;;;;;;;5055474;28;20484;-67
2023/09/18 03:35:54;;;;;;;4.20;1.30;;;;;;;;;;5066217;28;20492;-67
2023/09/18 03:38:21;;;;;;;4.43;1.10;;;;;;;;;;5061276;28;20969;-66
2023/09/18 03:40:50;;;;;;;3.03;1.20;;;;;;;;;;5065602;28;20474;-67
2023/09/18 03:43:17;;;;;;;3.43;1.40;;;;;;;;;;5417892;22;20453;31
2023/09/18 03:45:44;;;;;;;2.07;1.10;;;;;;;;;;5030419;28;20896;-67
2023/09/18 03:48:11;;;;;;;8.13;1.73;;;;;;;;;;5031562;28;20459;-67
2023/09/18 03:50:39;;;;;;;4.23;1.80;;;;;;;;;;5033058;28;20447;-66
2023/09/18 03:53:06;;;;;;;7.37;1.50;;;;;;;;;;5031734;28;20463;-67
2023/09/18 03:55:33;;;;;;;4.40;1.80;;;;;;;;;;5031390;28;20567;-66
2023/09/18 03:58:01;;;;;;;3.37;1.43;;;;;;;;;;5030500;28;20463;-66
2023/09/18 04:00:28;;;;;;;4.50;1.10;;;;;;;;;;5026655;28;20454;-66
2023/09/18 04:02:56;;;;;;;18.93;2.77;;;;;;;;;;5029552;28;20469;-67
2023/09/18 04:05:23;;;;;;;2.60;0.90;;;;;;;;;;5031869;28;20458;-66
2023/09/18 04:07:51;;;;;;;3.03;1.03;;;;;;;;;;5031654;28;20439;-66
2023/09/18 04:10:22;;;;;;;2.60;0.93;;;;;;;;;;5029944;28;20459;-65
2023/09/18 04:12:50;;;;;;;4.80;1.60;;;;;;;;;;5018686;28;20466;-65
2023/09/18 04:15:18;;;;;;;3.37;1.10;;;;;;;;;;5030363;28;20510;-65
2023/09/18 04:17:45;;;;;;;2.50;1.10;;;;;;;;;;5030833;28;20459;-66
2023/09/18 04:20:14;;;;;;;2.37;1.07;;;;;;;;;;5032093;28;20459;-65
2023/09/18 04:22:44;;;;;;;4.60;1.10;;;;;;;;;;5030181;28;21023;-66
2023/09/18 04:25:11;;;;;;;2.57;1.23;;;;;;;;;;5028436;28;20482;-66
2023/09/18 04:27:38;;;;;;;6.43;2.20;;;;;;;;;;5028933;28;20454;-65
2023/09/18 04:30:08;;;;;;;4.70;1.80;;;;;;;;;;5030314;28;20471;-66
2023/09/18 04:32:38;;;;;;;4.70;1.97;;;;;;;;;;5030657;28;20992;-66
2023/09/18 04:35:06;;;;;;;3.43;1.40;;;;;;;;;;5030908;28;20455;-66
2023/09/18 04:37:33;;;;;;;5.00;1.70;;;;;;;;;;5030807;28;20545;-65
2023/09/18 04:40:00;;;;;;;2.90;1.03;;;;;;;;;;5027726;28;20462;-65
2023/09/18 04:42:27;;;;;;;3.97;1.53;;;;;;;;;;5019395;28;20811;-64
2023/09/18 04:44:54;;;;;;;5.73;1.60;;;;;;;;;;5032802;28;21003;-66
2023/09/18 04:47:21;;;;;;;4.53;2.13;;;;;;;;;;5031852;28;20443;-66
2023/09/18 04:49:50;;;;;;;5.43;2.00;;;;;;;;;;5018586;28;20518;-67
2023/09/18 04:52:17;;;;;;;4.23;1.90;;;;;;;;;;5020597;28;20546;-66
2023/09/18 04:54:44;;;;;;;7.00;2.03;;;;;;;;;;5030763;28;20478;-66
2023/09/18 04:57:11;;;;;;;2.80;1.60;;;;;;;;;;5031680;28;20506;-67
2023/09/18 04:59:38;;;;;;;7.30;1.80;;;;;;;;;;5031583;28;20485;-66
2023/09/18 05:02:05;;;;;;;2.17;1.20;;;;;;;;;;5027050;28;20459;-66
2023/09/18 05:04:32;;;;;;;2.67;1.10;;;;;;;;;;5028791;28;20483;-65
2023/09/18 05:07:02;;;;;;;3.57;1.90;;;;;;;;;;5029094;28;20451;-66
2023/09/18 05:09:29;;;;;;;5.03;2.27;;;;;;;;;;5030642;28;20459;-66
2023/09/18 05:11:57;;;;;;;3.10;1.10;;;;;;;;;;5028320;28;20451;-66
2023/09/18 05:14:25;;;;;;;5.43;1.57;;;;;;;;;;5031284;28;20570;-66
2023/09/18 05:16:52;;;;;;;2.50;1.30;;;;;;;;;;5028938;28;20475;-66
2023/09/18 05:19:19;;;;;;;2.50;1.23;;;;;;;;;;5030145;28;20451;-65
2023/09/18 05:21:46;;;;;;;2.40;1.03;;;;;;;;;;5031897;28;20439;-66
2023/09/18 05:24:14;;;;;;;5.50;1.80;;;;;;;;;;5032517;28;20469;-66
2023/09/18 05:26:41;;;;;;;3.43;1.67;;;;;;;;;;5032235;28;20826;-66
2023/09/18 05:29:10;;;;;;;2.53;1.20;;;;;;;;;;5028473;28;21056;-66
2023/09/18 05:31:37;;;;;;;3.30;1.40;;;;;;;;;;5031235;28;20473;-66
2023/09/18 05:34:04;;;;;;;2.73;1.40;;;;;;;;;;5029603;28;20494;-65
2023/09/18 05:36:31;;;;;;;2.90;1.63;;;;;;;;;;5029005;28;20483;-65
2023/09/18 05:38:58;;;;;;;4.33;1.30;;;;;;;;;;5031406;28;20477;-62
2023/09/18 05:41:28;;;;;;;3.20;1.17;;;;;;;;;;5029585;28;20828;-62
2023/09/18 05:43:55;;;;;;;7.93;1.47;;;;;;;;;;5029196;28;20878;-62
2023/09/18 05:46:23;;;;;;;4.87;1.50;;;;;;;;;;5030481;28;20482;-62
2023/09/18 05:48:50;;;;;;;3.77;1.40;;;;;;;;;;5033159;28;20467;-64
2023/09/18 05:51:17;;;;;;;3.83;1.20;;;;;;;;;;5035592;28;20491;-63
2023/09/18 05:53:44;;;;;;;2.40;1.10;;;;;;;;;;5036222;28;20455;-64
2023/09/18 05:56:12;;;;;;;2.80;1.77;;;;;;;;;;5041566;28;20483;-63
2023/09/18 05:58:40;;;;;;;4.07;2.53;;;;;;;;;;5029169;28;20481;-62
2023/09/18 06:01:08;;;;;;;6.07;1.37;;;;;;;;;;5030038;28;20490;-61
2023/09/18 06:03:35;;;;;;;5.47;1.43;;;;;;;;;;5033736;28;20455;-61
2023/09/18 06:06:03;;;;;;;3.17;2.03;;;;;;;;;;5030056;28;20881;-62
2023/09/18 06:08:30;;;;;;;3.90;1.30;;;;;;;;;;5033350;28;20509;-62
2023/09/18 06:10:57;;;;;;;3.70;1.60;;;;;;;;;;5032676;28;20458;-62
2023/09/18 06:13:25;;;;;;;2.57;1.20;;;;;;;;;;5032748;28;20455;-61
2023/09/18 06:15:55;;;;;;;3.57;1.93;;;;;;;;;;5030476;28;20482;-60
2023/09/18 06:18:22;;;;;;;3.40;1.67;;;;;;;;;;5032871;28;20521;-61
2023/09/18 06:20:49;;;;;;;3.07;1.03;;;;;;;;;;5034020;28;20443;-60
2023/09/18 06:23:16;;;;;;;6.83;1.50;;;;;;;;;;5032765;28;20463;-61
2023/09/18 06:25:43;;;;;;;2.63;1.27;;;;;;;;;;5033862;28;21052;-61
2023/09/18 06:28:10;;;;;;;3.50;1.23;;;;;;;;;;5031978;28;20463;-61
2023/09/18 06:30:38;;;;;;;4.63;1.97;;;;;;;;;;5032759;28;20466;-61
2023/09/18 06:33:07;;;;;;;2.73;1.10;;;;;;;;;;5032973;28;20458;-62
2023/09/18 06:35:34;;;;;;;3.17;1.10;;;;;;;;;;5031804;28;20481;-61
2023/09/18 06:38:01;;;;;;;2.83;1.27;;;;;;;;;;5033366;28;20508;-61
2023/09/18 06:40:28;;;;;;;3.00;1.37;;;;;;;;;;5031533;28;20902;-61
2023/09/18 06:43:00;;;;;;;4.80;1.57;;;;;;;;;;5031832;28;20551;-61
2023/09/18 06:45:27;;;;;;;4.13;1.67;;;;;;;;;;5031596;28;20985;-61
2023/09/18 06:47:55;;;;;;;4.23;1.93;;;;;;;;;;5030685;28;20941;-61
2023/09/18 06:50:24;;;;;;;6.00;1.60;;;;;;;;;;5032870;28;20471;-60
2023/09/18 06:52:51;;;;;;;2.07;1.00;;;;;;;;;;5031523;28;20455;-66
2023/09/18 06:55:18;;;;;;;3.27;1.30;;;;;;;;;;5029386;28;20992;-62
2023/09/18 06:57:47;;;;;;;2.90;1.80;;;;;;;;;;5029174;28;20486;-61
2023/09/18 07:00:18;;;;;;;4.50;1.17;;;;;;;;;;5030440;28;20463;-62
2023/09/18 07:02:45;;;;;;;3.30;1.20;;;;;;;;;;5030564;28;20450;-62
2023/09/18 07:05:12;;;;;;;2.13;1.30;;;;;;;;;;5030154;28;20552;-61
2023/09/18 07:07:41;;;;;;;2.23;1.10;;;;;;;;;;5029800;28;20451;-61
2023/09/18 07:10:08;;;;;;;3.50;1.60;;;;;;;;;;5030662;28;20454;-61
2023/09/18 07:12:36;;;;;;;2.73;1.33;;;;;;;;;;5028951;28;20505;-61
2023/09/18 07:15:04;;;;;;;4.67;1.57;;;;;;;;;;5029770;28;20534;-61
2023/09/18 07:17:31;;;;;;;2.77;1.20;;;;;;;;;;5029565;28;20483;-61
2023/09/18 07:19:59;;;;;;;2.03;1.07;;;;;;;;;;5032395;28;20447;-61
2023/09/18 07:22:26;;;;;;;4.77;1.20;;;;;;;;;;5028752;28;20459;-61
2023/09/18 07:24:54;;;;;;;4.07;1.53;;;;;;;;;;5028143;28;20475;-61
2023/09/18 07:27:21;;;;;;;4.53;1.40;;;;;;;;;;5028428;28;20474;-61
2023/09/18 07:29:49;;;;;;;2.67;1.10;;;;;;;;;;5028931;28;20542;-61
2023/09/18 07:32:16;;;;;;;3.07;0.90;;;;;;;;;;5030126;28;20513;-61
2023/09/18 07:34:43;;;;;;;5.00;0.90;;;;;;;;;;5031598;28;20478;-61
2023/09/18 07:37:10;;;;;;;1.57;0.60;;;;;;;;;;5031108;28;20483;-66
2023/09/18 07:39:39;;;;;;;2.50;1.20;;;;;;;;;;5020507;28;20459;-61
2023/09/18 07:42:08;;;;;;;1.47;0.60;;;;;;;;;;5023163;28;20451;-61
2023/09/18 07:44:35;;;;;;;2.40;0.77;;;;;;;;;;5032426;28;20934;-60
2023/09/18 07:47:02;;;;;;;2.97;0.97;;;;;;;;;;5031258;28;20841;-61
2023/09/18 07:49:29;;;;;;;1.50;0.70;;;;;;;;;;5031493;28;20463;-61
2023/09/18 07:51:56;;;;;;;1.83;0.87;;;;;;;;;;5032577;28;20458;-61
2023/09/18 07:54:23;;;;;;;3.33;0.93;;;;;;;;;;5031542;28;21066;-61
2023/09/18 07:56:51;;;;;;;3.10;0.60;;;;;;;;;;5032404;28;20475;-61
2023/09/18 07:59:19;;;;;;;1.80;0.70;;;;;;;;;;5031665;28;20822;-61
2023/09/18 08:01:46;;;;;;;1.83;0.80;;;;;;;;;;5032338;28;20583;-61
2023/09/18 08:04:14;;;;;;;2.33;0.80;;;;;;;;;;5032386;28;20941;-61
2023/09/18 08:06:41;;;;;;;1.70;0.80;;;;;;;;;;5031014;28;20435;-60
2023/09/18 08:09:13;;;;;;;1.90;0.90;;;;;;;;;;5031696;28;20459;-60
2023/09/18 08:11:42;;;;;;;2.70;0.73;;;;;;;;;;5031433;28;20963;-62
2023/09/18 08:14:09;;;;;;;1.90;0.70;;;;;;;;;;5032496;28;20561;-61
2023/09/18 08:16:39;;;;;;;2.30;0.93;;;;;;;;;;5031954;28;20533;-61
2023/09/18 08:19:06;;;;;;;1.90;0.80;;;;;;;;;;5031020;28;20542;-61
2023/09/18 08:21:33;;;;;;;1.90;0.70;;;;;;;;;;5032140;28;20489;-61
2023/09/18 08:24:00;;;;;;;1.40;0.60;;;;;;;;;;5030379;28;20458;-61
2023/09/18 08:26:28;;;;;;;2.07;0.90;;;;;;;;;;5030483;28;20459;-61
2023/09/18 08:28:55;;;;;;;2.30;0.70;;;;;;;;;;5030738;28;20459;-61
2023/09/18 08:31:23;;;;;;;1.53;0.80;;;;;;;;;;5031925;28;20454;-61
2023/09/18 08:33:52;;;;;;;5.10;0.70;;;;;;;;;;5031218;28;20941;-61
2023/09/18 08:36:19;;;;;;;2.50;0.70;;;;;;;;;;5030005;28;20474;-61
2023/09/18 08:38:47;;;;;;;1.93;0.90;;;;;;;;;;5031080;28;20458;-61
2023/09/18 08:41:15;;;;;;;2.33;0.60;;;;;;;;;;5030694;28;20447;-60
2023/09/18 08:43:44;;;;;;;2.50;0.80;;;;;;;;;;5031766;28;20451;-61
2023/09/18 08:46:11;;;;;;;4.27;0.83;;;;;;;;;;5030123;28;21034;-61
2023/09/18 08:48:39;;;;;;;4.93;0.90;;;;;;;;;;5030204;28;20497;-62
2023/09/18 08:51:08;;;;;;;1.60;0.50;;;;;;;;;;5031897;28;20447;-61
2023/09/18 08:53:35;;;;;;;1.67;0.67;;;;;;;;;;5029661;28;20466;-61
2023/09/18 08:56:03;;;;;;;1.63;0.77;;;;;;;;;;5031561;28;20841;-61
2023/09/18 08:58:32;;;;;;;2.03;1.23;;;;;;;;;;5029968;28;20483;-61
2023/09/18 09:01:00;;;;;;;2.40;0.77;;;;;;;;;;5031799;28;20447;-61
2023/09/18 09:03:28;;;;;;;4.00;1.00;;;;;;;;;;5031534;28;20455;-61
2023/09/18 09:05:55;;;;;;;1.70;0.70;;;;;;;;;;5030667;28;20479;-61
2023/09/18 09:08:23;;;;;;;2.47;1.23;;;;;;;;;;5030979;28;20431;-60
2023/09/18 09:10:50;;;;;;;2.23;0.70;;;;;;;;;;5030689;28;20458;-61
2023/09/18 09:13:18;;;;;;;2.63;1.03;;;;;;;;;;5031252;28;20473;-61
2023/09/18 09:15:46;;;;;;;2.47;0.70;;;;;;;;;;5029441;28;21419;-61
2023/09/18 09:18:14;;;;;;;1.60;0.70;;;;;;;;;;5030667;28;20834;-61
2023/09/18 09:20:42;;;;;;;2.40;1.00;;;;;;;;;;5031690;28;20447;-61
2023/09/18 09:23:10;;;;;;;1.97;0.90;;;;;;;;;;5034002;28;20447;-60
2023/09/18 09:25:39;;;;;;;2.33;0.80;;;;;;;;;;5034547;28;20550;-61
2023/09/18 09:28:07;;;;;;;2.97;0.90;;;;;;;;;;5035165;28;20442;-62
2023/09/18 09:30:35;;;;;;;1.50;0.80;;;;;;;;;;5035610;28;20822;-60
2023/09/18 09:33:04;;;;;;;3.53;1.03;;;;;;;;;;5034966;28;21274;-60
2023/09/18 09:35:33;;;;;;;1.60;0.87;;;;;;;;;;5033148;28;20486;-64
2023/09/18 09:38:01;;;;;;;4.17;0.70;;;;;;;;;;5035364;28;20482;-61
2023/09/18 09:40:30;;;;;;;2.50;0.77;;;;;;;;;;5035169;28;20459;-61
2023/09/18 09:43:01;;;;;;;2.10;0.97;;;;;;;;;;5078762;22;20503;-63
2023/09/18 09:45:30;;;;;;;4.23;1.50;;;;;;;;;;5071248;28;20481;-62
2023/09/18 09:47:57;;;;;;;3.13;1.47;;;;;;;;;;5073172;28;20429;-62
2023/09/18 09:50:26;;;;;;;2.90;0.90;;;;;;;;;;5074179;28;20488;-63
2023/09/18 09:52:54;;;;;;;2.67;0.90;;;;;;;;;;5072225;28;20516;-63
2023/09/18 09:55:25;;;;;;;3.07;0.97;;;;;;;;;;5068773;28;20481;-62
2023/09/18 09:57:54;;;;;;;1.87;0.90;;;;;;;;;;5074039;28;20600;-63
2023/09/18 10:00:29;;;;;;;2.37;0.70;;;;;;;;;;5073748;28;20441;-62
2023/09/18 10:02:58;;;;;;;1.73;0.67;;;;;;;;;;5073619;28;20551;-63
2023/09/18 10:05:28;;;;;;;2.37;1.00;;;;;;;;;;5071249;28;20852;-62
2023/09/18 10:07:58;;;;;;;3.50;0.90;;;;;;;;;;5073568;28;21101;-62
2023/09/18 10:10:25;;;;;;;1.50;0.63;;;;;;;;;;5072131;28;20464;-62
2023/09/18 10:12:53;;;;;;;2.70;1.23;;;;;;;;;;5072932;28;20850;-63
2023/09/18 10:15:20;;;;;;;2.10;0.87;;;;;;;;;;5072370;28;20473;-62
2023/09/18 10:17:50;;;;;;;4.73;1.10;;;;;;;;;;5072120;28;20484;-62
2023/09/18 10:20:20;;;;;;;2.30;0.70;;;;;;;;;;5073338;28;20520;-62
2023/09/18 10:22:47;;;;;;;2.13;1.00;;;;;;;;;;5072700;28;20460;-63
2023/09/18 10:25:18;;;;;;;2.40;0.87;;;;;;;;;;5072269;28;20995;-63
2023/09/18 10:27:46;;;;;;;2.00;0.87;;;;;;;;;;5073407;28;20473;-62
2023/09/18 10:30:14;;;;;;;5.40;1.00;;;;;;;;;;5072023;28;20437;-62
2023/09/18 10:32:41;;;;;;;3.30;1.30;;;;;;;;;;5059679;28;20445;-62
2023/09/18 10:35:12;;;;;;;2.37;0.70;;;;;;;;;;5071937;28;20477;-63
2023/09/18 10:37:39;;;;;;;1.90;1.00;;;;;;;;;;5073268;28;20594;-62
2023/09/18 10:40:07;;;;;;;1.70;0.80;;;;;;;;;;5071013;28;21283;-62
2023/09/18 10:42:36;;;;;;;3.93;0.70;;;;;;;;;;5073661;28;20883;-63
2023/09/18 10:45:04;;;;;;;3.00;0.83;;;;;;;;;;5072383;28;20507;-63
2023/09/18 10:47:32;;;;;;;3.10;0.90;;;;;;;;;;5072610;28;20449;-63
2023/09/18 10:49:59;;;;;;;1.80;0.70;;;;;;;;;;5072432;28;20442;-63
2023/09/18 10:52:27;;;;;;;1.40;0.67;;;;;;;;;;5072994;28;20441;-62
2023/09/18 10:54:55;;;;;;;2.20;0.90;;;;;;;;;;5071361;28;20481;-63
2023/09/18 10:57:22;;;;;;;2.50;0.93;;;;;;;;;;5072325;28;20488;-63
2023/09/18 10:59:49;;;;;;;2.37;0.70;;;;;;;;;;5072657;28;20452;-63
2023/09/18 11:02:17;;;;;;;1.90;0.70;;;;;;;;;;5073058;28;20828;-63
2023/09/18 11:04:44;;;;;;;2.20;0.70;;;;;;;;;;5070862;28;20535;-62
2023/09/18 11:07:20;;;;;;;1.77;0.80;;;;;;;;;;5072192;28;20442;-63
2023/09/18 11:09:49;;;;;;;2.00;0.90;;;;;;;;;;5072289;28;20453;-63
2023/09/18 11:12:17;;;;;;;3.33;1.33;;;;;;;;;;5072801;28;20441;-63
2023/09/18 11:14:49;;;;;;;2.00;0.87;;;;;;;;;;5071700;28;20935;-63
2023/09/18 11:17:30;;;;;;;2.03;0.70;;;;;;;;;;5067216;28;20459;-63
2023/09/18 11:20:04;;;;;;;3.17;0.70;;;;;;;;;;5072595;28;20445;-63
2023/09/18 11:22:31;;;;;;;1.80;0.70;;;;;;;;;;5072360;28;20452;-64
2023/09/18 11:25:14;;;;;;;2.00;0.90;;;;;;;;;;5070307;28;21048;-63
2023/09/18 11:27:56;;;;;;;2.63;1.10;;;;;;;;;;5071899;28;20935;-61
2023/09/18 11:30:23;;;;;;;2.63;1.00;;;;;;;;;;5072259;28;20433;-63
2023/09/18 11:32:50;;;;;;;1.90;0.90;;;;;;;;;;5072544;28;20492;-63
2023/09/18 11:35:18;;;;;;;2.90;1.30;;;;;;;;;;5068204;28;20469;-62
2023/09/18 11:37:45;;;;;;;2.20;1.00;;;;;;;;;;5072152;28;20568;-63
2023/09/18 11:40:28;;;;;;;1.50;0.70;;;;;;;;;;5070240;28;20913;-63
2023/09/18 11:43:15;;;;;;;2.93;0.90;;;;;;;;;;5071744;28;20445;-63
2023/09/18 11:45:47;;;;;;;1.87;0.80;;;;;;;;;;5064700;28;20476;-63
2023/09/18 11:48:15;;;;;;;1.80;0.90;;;;;;;;;;5069963;28;20438;-63
2023/09/18 11:50:43;;;;;;;1.67;0.70;;;;;;;;;;5071925;28;20456;-62
2023/09/18 11:53:10;;;;;;;3.20;0.90;;;;;;;;;;5070772;28;20437;-62
2023/09/18 11:55:39;;;;;;;2.10;0.70;;;;;;;;;;5070861;28;20506;-62
2023/09/18 11:58:09;;;;;;;1.73;0.80;;;;;;;;;;5070889;28;20480;-63
2023/09/18 12:00:45;;;;;;;2.70;0.70;;;;;;;;;;5072729;28;20472;-62
2023/09/18 12:03:25;;;;;;;1.50;0.70;;;;;;;;;;5071711;28;20445;-62
2023/09/18 12:05:53;;;;;;;1.70;0.70;;;;;;;;;;5070457;28;20604;-63
2023/09/18 12:08:21;;;;;;;2.03;0.60;;;;;;;;;;5071779;28;20445;-62
2023/09/18 12:10:50;;;;;;;2.13;1.00;;;;;;;;;;5070207;28;20519;-62
2023/09/18 12:13:17;;;;;;;1.80;0.83;;;;;;;;;;5071230;28;20848;-62
2023/09/18 12:15:44;;;;;;;2.70;1.20;;;;;;;;;;5070191;28;20944;-62
2023/09/18 12:18:11;;;;;;;1.90;1.00;;;;;;;;;;5071373;28;20487;-62
2023/09/18 12:20:46;;;;;;;1.70;0.67;;;;;;;;;;5070159;28;20549;-63
2023/09/18 12:23:13;;;;;;;1.90;0.70;;;;;;;;;;5071218;28;20516;-62
2023/09/18 12:25:40;;;;;;;1.93;1.17;;;;;;;;;;5065497;28;20473;-62
2023/09/18 12:28:07;;;;;;;3.47;1.30;;;;;;;;;;5071297;28;20434;-62
2023/09/18 12:30:35;;;;;;;2.70;0.90;;;;;;;;;;5070041;28;20437;-63
2023/09/18 12:33:03;;;;;;;4.20;0.87;;;;;;;;;;5070574;28;20452;-63
2023/09/18 12:35:30;;;;;;;3.30;0.80;;;;;;;;;;5070281;28;20484;-63
2023/09/18 12:37:59;;;;;;;2.57;0.90;;;;;;;;;;5070254;28;20477;-63
2023/09/18 12:40:27;;;;;;;2.67;0.93;;;;;;;;;;5070149;28;20517;-63
2023/09/18 12:42:55;;;;;;;4.20;1.13;;;;;;;;;;5071345;28;20569;-64
2023/09/18 12:45:22;;;;;;;2.00;0.93;;;;;;;;;;5070206;28;20556;-64
2023/09/18 12:47:49;;;;;;;1.93;0.87;;;;;;;;;;5070972;28;20437;-63
2023/09/18 12:50:16;;;;;;;2.03;1.20;;;;;;;;;;5070606;28;20445;-64
2023/09/18 12:52:44;;;;;;;1.63;0.60;;;;;;;;;;5070391;28;20507;-63
2023/09/18 12:55:23;;;;;;;3.40;1.23;;;;;;;;;;5068325;28;20563;-63
2023/09/18 12:57:50;;;;;;;2.50;1.00;;;;;;;;;;5073715;28;20496;-63
2023/09/18 13:00:21;;;;;;;1.70;0.83;;;;;;;;;;5074318;28;20532;-63
2023/09/18 13:02:48;;;;;;;1.43;0.60;;;;;;;;;;5074565;28;20445;-63
2023/09/18 13:05:20;;;;;;;3.40;1.03;;;;;;;;;;5074273;28;20477;-63
2023/09/18 13:07:48;;;;;;;1.80;0.70;;;;;;;;;;5066841;28;20491;-63
2023/09/18 13:10:15;;;;;;;1.63;0.70;;;;;;;;;;5072818;28;20951;-63
2023/09/18 13:12:45;;;;;;;2.30;0.87;;;;;;;;;;5074963;28;20506;-63
2023/09/18 13:15:13;;;;;;;2.20;1.00;;;;;;;;;;5074148;28;21014;-63
2023/09/18 13:17:43;;;;;;;1.70;0.73;;;;;;;;;;5074784;28;20445;-63
2023/09/18 13:20:12;;;;;;;2.20;1.00;;;;;;;;;;5074001;28;20493;-62
2023/09/18 13:22:40;;;;;;;1.47;0.70;;;;;;;;;;5074942;28;20445;-62
2023/09/18 13:25:08;;;;;;;1.50;0.73;;;;;;;;;;5072563;28;21034;-63
2023/09/18 13:27:35;;;;;;;2.10;1.00;;;;;;;;;;5064833;28;20540;-63
2023/09/18 13:30:06;;;;;;;1.40;0.73;;;;;;;;;;5072752;28;20499;-63
2023/09/18 13:32:34;;;;;;;1.60;0.67;;;;;;;;;;5074137;28;20542;-63
2023/09/18 13:35:01;;;;;;;2.37;1.20;;;;;;;;;;5063767;28;20868;-63
2023/09/18 13:37:29;;;;;;;1.63;0.70;;;;;;;;;;5074213;28;20826;-62
2023/09/18 13:39:56;;;;;;;2.20;1.00;;;;;;;;;;5072952;28;20481;-63
2023/09/18 13:42:23;;;;;;;4.80;0.90;;;;;;;;;;5074302;28;20441;-63
2023/09/18 13:44:50;;;;;;;2.17;0.80;;;;;;;;;;5073582;28;20496;-63
2023/09/18 13:47:19;;;;;;;2.10;1.10;;;;;;;;;;5073755;28;20503;-63
2023/09/18 13:49:47;;;;;;;2.90;0.90;;;;;;;;;;5072294;28;20819;-64
2023/09/18 13:52:16;;;;;;;2.30;0.70;;;;;;;;;;5066614;28;20441;-65
2023/09/18 13:54:43;;;;;;;1.93;0.70;;;;;;;;;;5074681;28;20468;-64
2023/09/18 13:57:10;;;;;;;1.70;0.70;;;;;;;;;;5073571;28;20453;-65
2023/09/18 13:59:37;;;;;;;1.87;0.70;;;;;;;;;;5074241;28;20480;-63
2023/09/18 14:02:05;;;;;;;1.90;0.80;;;;;;;;;;5072715;28;20970;-64
2023/09/18 14:04:33;;;;;;;1.60;0.70;;;;;;;;;;5073844;28;20495;-63
2023/09/18 14:07:00;;;;;;;1.40;0.80;;;;;;;;;;5072931;28;20783;-63
2023/09/18 14:09:28;;;;;;;1.70;0.90;;;;;;;;;;5071768;28;20496;-63
2023/09/18 14:11:56;;;;;;;2.10;0.93;;;;;;;;;;5073176;28;20506;-61
2023/09/18 14:14:23;;;;;;;1.90;0.60;;;;;;;;;;5073834;28;20464;-63
2023/09/18 14:16:50;;;;;;;3.33;0.87;;;;;;;;;;5073722;28;20554;-63
2023/09/18 14:19:19;;;;;;;1.83;0.70;;;;;;;;;;5072433;28;20651;-62
2023/09/18 14:21:49;;;;;;;3.10;0.60;;;;;;;;;;5072789;28;20810;-63
2023/09/18 14:24:17;;;;;;;1.63;0.73;;;;;;;;;;5072432;28;20853;-62
2023/09/18 14:26:45;;;;;;;1.63;0.90;;;;;;;;;;5071018;28;20456;-62
2023/09/18 14:29:13;;;;;;;1.90;0.87;;;;;;;;;;5073320;28;20946;-62
2023/09/18 14:31:40;;;;;;;2.83;0.67;;;;;;;;;;5073176;28;20445;-63
2023/09/18 14:34:08;;;;;;;1.60;0.70;;;;;;;;;;5073377;28;20472;-62
2023/09/18 14:36:35;;;;;;;1.87;0.70;;;;;;;;;;5072241;28;20471;-61
2023/09/18 14:39:04;;;;;;;2.00;0.83;;;;;;;;;;5072730;28;20488;-63
2023/09/18 14:41:31;;;;;;;2.53;0.80;;;;;;;;;;5071036;28;20457;-62
2023/09/18 14:43:59;;;;;;;1.87;0.70;;;;;;;;;;5072447;28;20449;-63
2023/09/18 14:46:26;;;;;;;1.40;0.50;;;;;;;;;;5072270;28;20468;-62
2023/09/18 14:48:53;;;;;;;1.50;0.70;;;;;;;;;;5072760;28;20464;-63